Aérodrome :
LOGIN :

S'inscrire | Disclaimer

   EN    FR    IT 

 










Légende :    VFR   VFR Marginal   IFR   IFR Intensif   IFR Très Intensif
Visi : 
Plafond : 
>= 8 km
>= 3000ft
5 à 8 km
1000 à 3000 ft
1500m à 5 km
500 à 1000 ft
800 à 1500m
200 à 500 ft
< 800m
< 200 ft
Symboles :   Orages  Brouillard  Fortes neiges  Fortes précipitations  Vent > 20 kt
SIGMETs :   Divers  Orages  Givrage  Turbulence  Onde Orograph.  Cendres Volcan.






- Altitude de l'aérodrome : 963 ft
- Code IATA : TGM


LRTM - Transilvania Târgu Mureş Int.

DERNIER METAR :
  • 210030Z AUTO 00000KT 6000 SCT023/// BKN095/// BKN110/// 00/M01 Q1022

METARs EXPIRÉS :
  • 210000Z AUTO 00000KT 9999 BKN095/// BKN110/// 01/00 Q1022
  • 202330Z AUTO 09002KT 9999 FEW016/// BKN080/// 01/00 Q1022
  • 202300Z AUTO 28002KT 250V320 9999 BKN015/// 02/00 Q1022
  • 202230Z AUTO 26001KT 9999 OVC015/// 02/01 Q1022
  • 202200Z AUTO 25003KT 9999 BKN013/// 02/00 Q1022

TAF TAF LRTM
Valide du 20 à 18h jusqu'au 21 à 03h UTC


201700Z 2018/2103 VRB04KT 9999 SCT025CB
BECMG 2018/2020 BKN030
BECMG 2020/2022 3000 BR
BECMG 2022/2024 0800 FZFG OVC002



MET'MAP, la Météo Aéronautique d'un coup d'oeil ! - Copyright ORBIFLY Décembre 2007 - Disclaimer

ORBIFLY MET'MAP TEAM :

Programmation & Développement : Alexandra Zaïnal
Sur une idée originale de : Baudouin d'Aumeries
Assistance à la programmation : Marc-Olivier Méhu
Soutien technique & logistique : Manuel Goepfert

Contact : metmap@orbifly.com




SOURCES & CREDITS :

   NOAA